sensor_id;sensor_type;location;lat;lon;timestamp;temperature;humidity
39849;DHT22;25518;47.878;15.914;2023-02-18T00:00:34;12.40;99.90
39849;DHT22;25518;47.878;15.914;2023-02-18T00:03:25;12.50;99.90
39849;DHT22;25518;47.878;15.914;2023-02-18T00:06:26;12.50;99.90
39849;DHT22;25518;47.878;15.914;2023-02-18T00:09:15;12.50;99.90
39849;DHT22;25518;47.878;15.914;2023-02-18T00:12:05;12.50;99.90
39849;DHT22;25518;47.878;15.914;2023-02-18T00:14:55;12.50;99.90
39849;DHT22;25518;47.878;15.914;2023-02-18T00:17:44;12.00;99.90
39849;DHT22;25518;47.878;15.914;2023-02-18T00:20:34;12.40;99.90
39849;DHT22;25518;47.878;15.914;2023-02-18T00:23:24;12.30;99.90
39849;DHT22;25518;47.878;15.914;2023-02-18T00:26:16;12.40;99.90
39849;DHT22;25518;47.878;15.914;2023-02-18T00:29:06;12.30;99.90
39849;DHT22;25518;47.878;15.914;2023-02-18T00:31:56;12.30;99.90
39849;DHT22;25518;47.878;15.914;2023-02-18T00:34:45;12.40;99.90
39849;DHT22;25518;47.878;15.914;2023-02-18T00:37:35;12.20;99.90
39849;DHT22;25518;47.878;15.914;2023-02-18T00:40:25;12.10;99.90
39849;DHT22;25518;47.878;15.914;2023-02-18T00:43:15;12.30;99.90
39849;DHT22;25518;47.878;15.914;2023-02-18T00:46:05;12.40;99.90
39849;DHT22;25518;47.878;15.914;2023-02-18T00:48:55;12.30;99.90
39849;DHT22;25518;47.878;15.914;2023-02-18T00:51:44;12.40;99.90
39849;DHT22;25518;47.878;15.914;2023-02-18T00:54:34;12.40;99.90
39849;DHT22;25518;47.878;15.914;2023-02-18T00:57:24;12.30;99.90
39849;DHT22;25518;47.878;15.914;2023-02-18T01:00:14;12.40;99.90
39849;DHT22;25518;47.878;15.914;2023-02-18T01:03:04;12.50;99.90
39849;DHT22;25518;47.878;15.914;2023-02-18T01:05:58;12.50;99.90
39849;DHT22;25518;47.878;15.914;2023-02-18T01:08:47;12.40;99.90
39849;DHT22;25518;47.878;15.914;2023-02-18T01:11:38;12.30;99.90
39849;DHT22;25518;47.878;15.914;2023-02-18T01:14:28;12.40;99.90
39849;DHT22;25518;47.878;15.914;2023-02-18T01:17:17;12.40;99.90
39849;DHT22;25518;47.878;15.914;2023-02-18T01:20:08;12.30;99.90
39849;DHT22;25518;47.878;15.914;2023-02-18T01:22:58;12.10;99.90
39849;DHT22;25518;47.878;15.914;2023-02-18T01:25:48;12.00;99.90
39849;DHT22;25518;47.878;15.914;2023-02-18T01:28:39;11.90;99.90
39849;DHT22;25518;47.878;15.914;2023-02-18T01:31:30;12.00;99.90
39849;DHT22;25518;47.878;15.914;2023-02-18T01:34:19;11.90;99.90
39849;DHT22;25518;47.878;15.914;2023-02-18T01:37:09;11.70;99.90
39849;DHT22;25518;47.878;15.914;2023-02-18T01:39:59;11.80;99.90
39849;DHT22;25518;47.878;15.914;2023-02-18T01:42:49;11.80;99.90
39849;DHT22;25518;47.878;15.914;2023-02-18T01:46:14;11.90;99.90
39849;DHT22;25518;47.878;15.914;2023-02-18T01:48:56;11.80;99.90
39849;DHT22;25518;47.878;15.914;2023-02-18T01:51:49;11.80;99.90
39849;DHT22;25518;47.878;15.914;2023-02-18T01:54:43;11.60;99.90
39849;DHT22;25518;47.878;15.914;2023-02-18T01:57:36;11.60;99.90
39849;DHT22;25518;47.878;15.914;2023-02-18T02:00:27;11.60;99.90
39849;DHT22;25518;47.878;15.914;2023-02-18T02:03:16;11.60;99.90
39849;DHT22;25518;47.878;15.914;2023-02-18T02:06:14;11.60;99.90
39849;DHT22;25518;47.878;15.914;2023-02-18T02:09:05;11.50;99.90
39849;DHT22;25518;47.878;15.914;2023-02-18T02:18:46;11.50;99.90
39849;DHT22;25518;47.878;15.914;2023-02-18T02:21:38;11.50;99.90
39849;DHT22;25518;47.878;15.914;2023-02-18T02:28:35;11.50;99.90
39849;DHT22;25518;47.878;15.914;2023-02-18T02:34:43;11.30;99.90
39849;DHT22;25518;47.878;15.914;2023-02-18T02:37:46;11.20;99.90
39849;DHT22;25518;47.878;15.914;2023-02-18T02:40:47;11.10;99.90
39849;DHT22;25518;47.878;15.914;2023-02-18T02:46:40;11.20;99.90
39849;DHT22;25518;47.878;15.914;2023-02-18T02:52:32;8.70;99.90
39849;DHT22;25518;47.878;15.914;2023-02-18T02:55:23;11.10;99.90
39849;DHT22;25518;47.878;15.914;2023-02-18T02:58:16;11.00;99.90
39849;DHT22;25518;47.878;15.914;2023-02-18T03:18:25;11.20;99.90
39849;DHT22;25518;47.878;15.914;2023-02-18T03:21:32;11.20;99.90
39849;DHT22;25518;47.878;15.914;2023-02-18T03:24:33;11.30;99.90
39849;DHT22;25518;47.878;15.914;2023-02-18T03:27:29;11.10;99.90
39849;DHT22;25518;47.878;15.914;2023-02-18T03:30:26;11.10;99.90
39849;DHT22;25518;47.878;15.914;2023-02-18T03:33:22;11.10;99.90
39849;DHT22;25518;47.878;15.914;2023-02-18T03:36:14;11.10;99.90
39849;DHT22;25518;47.878;15.914;2023-02-18T03:39:06;11.10;99.90
39849;DHT22;25518;47.878;15.914;2023-02-18T03:41:57;11.00;99.90
39849;DHT22;25518;47.878;15.914;2023-02-18T03:44:47;11.00;99.90
39849;DHT22;25518;47.878;15.914;2023-02-18T03:47:37;11.00;99.90
39849;DHT22;25518;47.878;15.914;2023-02-18T03:50:27;11.00;99.90
39849;DHT22;25518;47.878;15.914;2023-02-18T03:53:16;11.20;99.90
39849;DHT22;25518;47.878;15.914;2023-02-18T03:56:06;11.10;99.90
39849;DHT22;25518;47.878;15.914;2023-02-18T03:58:56;11.10;99.90
39849;DHT22;25518;47.878;15.914;2023-02-18T04:01:46;11.20;99.90
39849;DHT22;25518;47.878;15.914;2023-02-18T04:04:36;11.30;99.90
39849;DHT22;25518;47.878;15.914;2023-02-18T04:07:25;11.20;99.90
39849;DHT22;25518;47.878;15.914;2023-02-18T04:10:15;11.10;99.90
39849;DHT22;25518;47.878;15.914;2023-02-18T04:13:04;11.00;99.90
39849;DHT22;25518;47.878;15.914;2023-02-18T04:15:54;10.80;99.90
39849;DHT22;25518;47.878;15.914;2023-02-18T04:18:43;10.80;99.90
39849;DHT22;25518;47.878;15.914;2023-02-18T04:21:34;10.70;99.90
39849;DHT22;25518;47.878;15.914;2023-02-18T04:24:23;10.60;99.90
39849;DHT22;25518;47.878;15.914;2023-02-18T04:27:13;10.50;99.90
39849;DHT22;25518;47.878;15.914;2023-02-18T04:30:03;10.50;99.90
39849;DHT22;25518;47.878;15.914;2023-02-18T04:32:53;10.40;99.90
39849;DHT22;25518;47.878;15.914;2023-02-18T04:35:43;10.50;99.90
39849;DHT22;25518;47.878;15.914;2023-02-18T04:38:32;10.50;99.90
39849;DHT22;25518;47.878;15.914;2023-02-18T04:41:22;10.40;99.90
39849;DHT22;25518;47.878;15.914;2023-02-18T04:44:12;10.30;99.90
39849;DHT22;25518;47.878;15.914;2023-02-18T04:47:03;10.30;99.90
39849;DHT22;25518;47.878;15.914;2023-02-18T04:49:53;10.30;99.90
39849;DHT22;25518;47.878;15.914;2023-02-18T04:52:42;10.30;99.90
39849;DHT22;25518;47.878;15.914;2023-02-18T04:55:32;10.20;99.90
39849;DHT22;25518;47.878;15.914;2023-02-18T04:58:21;10.30;99.90
39849;DHT22;25518;47.878;15.914;2023-02-18T05:01:11;10.20;99.90
39849;DHT22;25518;47.878;15.914;2023-02-18T05:04:01;10.20;99.90
39849;DHT22;25518;47.878;15.914;2023-02-18T05:06:51;10.20;99.90
39849;DHT22;25518;47.878;15.914;2023-02-18T05:09:40;10.30;99.90
39849;DHT22;25518;47.878;15.914;2023-02-18T05:12:30;10.30;99.90
39849;DHT22;25518;47.878;15.914;2023-02-18T05:15:20;10.30;99.90
39849;DHT22;25518;47.878;15.914;2023-02-18T05:18:09;10.10;99.90
39849;DHT22;25518;47.878;15.914;2023-02-18T05:20:59;10.10;99.90
39849;DHT22;25518;47.878;15.914;2023-02-18T05:23:48;10.00;99.90
39849;DHT22;25518;47.878;15.914;2023-02-18T05:26:38;10.00;99.90
39849;DHT22;25518;47.878;15.914;2023-02-18T05:29:28;9.80;99.90
39849;DHT22;25518;47.878;15.914;2023-02-18T05:32:17;9.70;99.90
39849;DHT22;25518;47.878;15.914;2023-02-18T05:35:07;9.60;99.90
39849;DHT22;25518;47.878;15.914;2023-02-18T05:37:57;9.70;99.90
39849;DHT22;25518;47.878;15.914;2023-02-18T05:40:47;9.60;99.90
39849;DHT22;25518;47.878;15.914;2023-02-18T05:43:37;9.60;99.90
39849;DHT22;25518;47.878;15.914;2023-02-18T05:46:46;9.70;99.90
39849;DHT22;25518;47.878;15.914;2023-02-18T05:49:39;9.60;99.90
39849;DHT22;25518;47.878;15.914;2023-02-18T05:52:29;8.60;99.90
39849;DHT22;25518;47.878;15.914;2023-02-18T05:55:18;9.70;99.90
39849;DHT22;25518;47.878;15.914;2023-02-18T05:58:08;9.70;99.90
39849;DHT22;25518;47.878;15.914;2023-02-18T06:00:57;9.70;99.90
39849;DHT22;25518;47.878;15.914;2023-02-18T06:03:47;9.80;99.90
39849;DHT22;25518;47.878;15.914;2023-02-18T06:06:37;9.80;99.90
39849;DHT22;25518;47.878;15.914;2023-02-18T06:09:26;9.70;99.90
39849;DHT22;25518;47.878;15.914;2023-02-18T06:12:16;9.70;99.90
39849;DHT22;25518;47.878;15.914;2023-02-18T06:15:06;9.60;99.90
39849;DHT22;25518;47.878;15.914;2023-02-18T06:17:56;9.60;99.90
39849;DHT22;25518;47.878;15.914;2023-02-18T06:20:47;9.60;99.90
39849;DHT22;25518;47.878;15.914;2023-02-18T06:23:36;9.60;99.90
39849;DHT22;25518;47.878;15.914;2023-02-18T06:26:26;9.50;99.90
39849;DHT22;25518;47.878;15.914;2023-02-18T06:29:16;9.60;99.90
39849;DHT22;25518;47.878;15.914;2023-02-18T06:32:05;9.50;99.90
39849;DHT22;25518;47.878;15.914;2023-02-18T06:34:55;9.50;99.90
39849;DHT22;25518;47.878;15.914;2023-02-18T06:37:44;9.40;99.90
39849;DHT22;25518;47.878;15.914;2023-02-18T06:40:35;9.50;99.90
39849;DHT22;25518;47.878;15.914;2023-02-18T06:43:25;9.40;99.90
39849;DHT22;25518;47.878;15.914;2023-02-18T06:46:14;9.30;99.90
39849;DHT22;25518;47.878;15.914;2023-02-18T06:49:04;9.30;99.90
39849;DHT22;25518;47.878;15.914;2023-02-18T06:51:53;9.30;99.90
39849;DHT22;25518;47.878;15.914;2023-02-18T06:54:43;9.40;99.90
39849;DHT22;25518;47.878;15.914;2023-02-18T06:57:33;9.20;99.90
39849;DHT22;25518;47.878;15.914;2023-02-18T07:00:23;9.30;99.90
39849;DHT22;25518;47.878;15.914;2023-02-18T07:03:14;9.30;99.90
39849;DHT22;25518;47.878;15.914;2023-02-18T07:06:03;9.20;99.90
39849;DHT22;25518;47.878;15.914;2023-02-18T07:08:53;9.20;99.90
39849;DHT22;25518;47.878;15.914;2023-02-18T07:11:43;7.00;99.90
39849;DHT22;25518;47.878;15.914;2023-02-18T07:14:32;9.30;99.90
39849;DHT22;25518;47.878;15.914;2023-02-18T07:17:22;9.30;99.90
39849;DHT22;25518;47.878;15.914;2023-02-18T07:20:12;9.10;99.90
39849;DHT22;25518;47.878;15.914;2023-02-18T07:23:01;9.30;99.90
39849;DHT22;25518;47.878;15.914;2023-02-18T07:25:51;9.20;99.90
39849;DHT22;25518;47.878;15.914;2023-02-18T07:28:41;9.20;99.90
39849;DHT22;25518;47.878;15.914;2023-02-18T07:31:31;9.20;99.90
39849;DHT22;25518;47.878;15.914;2023-02-18T07:34:20;9.30;99.90
39849;DHT22;25518;47.878;15.914;2023-02-18T07:37:10;9.20;99.90
39849;DHT22;25518;47.878;15.914;2023-02-18T07:40:00;9.20;99.90
39849;DHT22;25518;47.878;15.914;2023-02-18T07:42:50;9.20;99.90
39849;DHT22;25518;47.878;15.914;2023-02-18T07:45:40;9.30;99.90
39849;DHT22;25518;47.878;15.914;2023-02-18T07:48:30;9.30;99.90
39849;DHT22;25518;47.878;15.914;2023-02-18T07:51:19;9.30;99.90
39849;DHT22;25518;47.878;15.914;2023-02-18T07:54:09;9.40;99.90
39849;DHT22;25518;47.878;15.914;2023-02-18T07:56:59;9.50;99.90
39849;DHT22;25518;47.878;15.914;2023-02-18T07:59:48;9.50;99.90
39849;DHT22;25518;47.878;15.914;2023-02-18T08:02:38;9.60;99.90
39849;DHT22;25518;47.878;15.914;2023-02-18T08:05:28;9.60;99.90
39849;DHT22;25518;47.878;15.914;2023-02-18T08:08:21;9.60;99.90
39849;DHT22;25518;47.878;15.914;2023-02-18T08:11:11;9.70;99.90
39849;DHT22;25518;47.878;15.914;2023-02-18T08:14:01;9.70;99.90
39849;DHT22;25518;47.878;15.914;2023-02-18T08:16:50;9.80;99.90
39849;DHT22;25518;47.878;15.914;2023-02-18T08:19:40;9.80;99.90
39849;DHT22;25518;47.878;15.914;2023-02-18T08:22:30;9.80;99.90
39849;DHT22;25518;47.878;15.914;2023-02-18T08:25:19;9.80;99.90
39849;DHT22;25518;47.878;15.914;2023-02-18T08:28:09;9.80;99.90
39849;DHT22;25518;47.878;15.914;2023-02-18T08:30:59;9.80;99.90
39849;DHT22;25518;47.878;15.914;2023-02-18T08:33:52;9.90;99.90
39849;DHT22;25518;47.878;15.914;2023-02-18T08:36:42;10.00;99.90
39849;DHT22;25518;47.878;15.914;2023-02-18T08:39:34;10.10;99.90
39849;DHT22;25518;47.878;15.914;2023-02-18T08:42:23;10.00;99.90
39849;DHT22;25518;47.878;15.914;2023-02-18T08:45:13;10.10;99.90
39849;DHT22;25518;47.878;15.914;2023-02-18T08:48:04;10.10;99.90
39849;DHT22;25518;47.878;15.914;2023-02-18T08:50:55;10.10;99.90
39849;DHT22;25518;47.878;15.914;2023-02-18T08:53:45;10.20;99.90
39849;DHT22;25518;47.878;15.914;2023-02-18T08:56:35;10.10;99.90
39849;DHT22;25518;47.878;15.914;2023-02-18T08:59:25;10.20;99.90
39849;DHT22;25518;47.878;15.914;2023-02-18T09:02:14;10.20;99.90
39849;DHT22;25518;47.878;15.914;2023-02-18T09:05:05;10.30;99.90
39849;DHT22;25518;47.878;15.914;2023-02-18T09:07:54;10.40;99.90
39849;DHT22;25518;47.878;15.914;2023-02-18T09:10:44;10.40;99.90
39849;DHT22;25518;47.878;15.914;2023-02-18T09:13:34;10.40;99.90
39849;DHT22;25518;47.878;15.914;2023-02-18T09:16:23;10.50;99.90
39849;DHT22;25518;47.878;15.914;2023-02-18T09:19:13;10.50;99.90
39849;DHT22;25518;47.878;15.914;2023-02-18T09:22:03;10.50;99.90
39849;DHT22;25518;47.878;15.914;2023-02-18T09:24:52;10.50;99.90
39849;DHT22;25518;47.878;15.914;2023-02-18T09:27:42;10.50;99.90
39849;DHT22;25518;47.878;15.914;2023-02-18T09:30:31;10.60;99.90
39849;DHT22;25518;47.878;15.914;2023-02-18T09:33:21;10.60;99.90
39849;DHT22;25518;47.878;15.914;2023-02-18T09:36:12;10.60;99.90
39849;DHT22;25518;47.878;15.914;2023-02-18T09:39:02;10.60;99.90
39849;DHT22;25518;47.878;15.914;2023-02-18T09:41:54;10.60;99.90
39849;DHT22;25518;47.878;15.914;2023-02-18T09:44:50;10.60;99.90
39849;DHT22;25518;47.878;15.914;2023-02-18T09:47:42;10.60;99.90
39849;DHT22;25518;47.878;15.914;2023-02-18T09:50:33;10.60;99.90
39849;DHT22;25518;47.878;15.914;2023-02-18T09:53:23;10.60;99.90
39849;DHT22;25518;47.878;15.914;2023-02-18T09:56:19;10.60;99.90
39849;DHT22;25518;47.878;15.914;2023-02-18T09:59:16;10.60;99.90
39849;DHT22;25518;47.878;15.914;2023-02-18T10:02:10;10.60;99.90
39849;DHT22;25518;47.878;15.914;2023-02-18T10:05:05;10.60;99.90
39849;DHT22;25518;47.878;15.914;2023-02-18T10:08:01;10.60;99.90
39849;DHT22;25518;47.878;15.914;2023-02-18T10:10:53;10.60;99.90
39849;DHT22;25518;47.878;15.914;2023-02-18T10:13:43;10.60;99.90
39849;DHT22;25518;47.878;15.914;2023-02-18T10:16:33;10.60;99.90
39849;DHT22;25518;47.878;15.914;2023-02-18T10:19:33;10.60;99.90
39849;DHT22;25518;47.878;15.914;2023-02-18T10:22:25;10.70;99.90
39849;DHT22;25518;47.878;15.914;2023-02-18T10:25:19;10.80;99.90
39849;DHT22;25518;47.878;15.914;2023-02-18T10:28:11;10.90;99.90
39849;DHT22;25518;47.878;15.914;2023-02-18T10:31:04;10.90;99.90
39849;DHT22;25518;47.878;15.914;2023-02-18T10:37:00;11.00;99.90
39849;DHT22;25518;47.878;15.914;2023-02-18T10:50:10;11.10;99.90
39849;DHT22;25518;47.878;15.914;2023-02-18T10:52:50;11.20;99.90
39849;DHT22;25518;47.878;15.914;2023-02-18T10:55:44;11.30;99.90
39849;DHT22;25518;47.878;15.914;2023-02-18T10:58:40;11.40;99.90
39849;DHT22;25518;47.878;15.914;2023-02-18T11:01:30;11.60;99.90
39849;DHT22;25518;47.878;15.914;2023-02-18T11:04:24;11.80;99.90
39849;DHT22;25518;47.878;15.914;2023-02-18T11:07:19;11.80;99.90
39849;DHT22;25518;47.878;15.914;2023-02-18T11:13:07;11.70;99.90
39849;DHT22;25518;47.878;15.914;2023-02-18T11:16:01;11.70;99.90
39849;DHT22;25518;47.878;15.914;2023-02-18T11:18:51;11.70;99.90
39849;DHT22;25518;47.878;15.914;2023-02-18T11:21:41;11.70;99.90
39849;DHT22;25518;47.878;15.914;2023-02-18T11:24:31;9.10;99.90
39849;DHT22;25518;47.878;15.914;2023-02-18T11:27:48;11.90;99.90
39849;DHT22;25518;47.878;15.914;2023-02-18T11:30:41;11.90;99.90
39849;DHT22;25518;47.878;15.914;2023-02-18T11:33:41;11.70;99.90
39849;DHT22;25518;47.878;15.914;2023-02-18T11:36:37;11.70;99.90
39849;DHT22;25518;47.878;15.914;2023-02-18T11:39:29;11.50;99.90
39849;DHT22;25518;47.878;15.914;2023-02-18T11:42:21;11.30;99.90
39849;DHT22;25518;47.878;15.914;2023-02-18T11:45:27;11.30;99.90
39849;DHT22;25518;47.878;15.914;2023-02-18T11:48:22;11.60;99.90
39849;DHT22;25518;47.878;15.914;2023-02-18T11:51:33;11.60;99.90
39849;DHT22;25518;47.878;15.914;2023-02-18T11:54:28;11.70;99.90
39849;DHT22;25518;47.878;15.914;2023-02-18T11:57:19;11.80;99.90
39849;DHT22;25518;47.878;15.914;2023-02-18T12:03:32;12.40;99.90
39849;DHT22;25518;47.878;15.914;2023-02-18T12:06:29;12.50;99.90
39849;DHT22;25518;47.878;15.914;2023-02-18T12:09:21;12.60;99.90
39849;DHT22;25518;47.878;15.914;2023-02-18T12:12:18;12.80;99.90
39849;DHT22;25518;47.878;15.914;2023-02-18T12:30:18;12.90;99.90
39849;DHT22;25518;47.878;15.914;2023-02-18T12:34:02;13.10;99.90
39849;DHT22;25518;47.878;15.914;2023-02-18T12:46:22;13.60;99.90
39849;DHT22;25518;47.878;15.914;2023-02-18T12:56:02;13.80;99.90
39849;DHT22;25518;47.878;15.914;2023-02-18T12:59:39;11.30;99.90
39849;DHT22;25518;47.878;15.914;2023-02-18T13:08:58;12.20;99.90
39849;DHT22;25518;47.878;15.914;2023-02-18T13:14:24;13.70;99.90
39849;DHT22;25518;47.878;15.914;2023-02-18T13:17:17;13.20;99.90
39849;DHT22;25518;47.878;15.914;2023-02-18T13:20:20;14.20;99.90
39849;DHT22;25518;47.878;15.914;2023-02-18T13:23:16;14.60;99.90
39849;DHT22;25518;47.878;15.914;2023-02-18T13:26:10;14.90;99.90
39849;DHT22;25518;47.878;15.914;2023-02-18T13:32:39;15.40;99.90
39849;DHT22;25518;47.878;15.914;2023-02-18T13:38:57;16.70;99.90
39849;DHT22;25518;47.878;15.914;2023-02-18T13:41:50;17.00;99.90
39849;DHT22;25518;47.878;15.914;2023-02-18T13:47:46;16.40;99.90
39849;DHT22;25518;47.878;15.914;2023-02-18T13:50:41;16.60;99.90
39849;DHT22;25518;47.878;15.914;2023-02-18T13:53:35;17.10;99.90
39849;DHT22;25518;47.878;15.914;2023-02-18T13:56:28;16.80;99.90
39849;DHT22;25518;47.878;15.914;2023-02-18T13:59:57;17.10;99.90
39849;DHT22;25518;47.878;15.914;2023-02-18T14:02:34;17.00;99.90
39849;DHT22;25518;47.878;15.914;2023-02-18T14:05:37;17.70;99.90
39849;DHT22;25518;47.878;15.914;2023-02-18T14:08:33;17.70;99.90
39849;DHT22;25518;47.878;15.914;2023-02-18T14:11:29;17.70;99.90
39849;DHT22;25518;47.878;15.914;2023-02-18T14:14:32;17.70;99.90
39849;DHT22;25518;47.878;15.914;2023-02-18T14:17:30;18.10;99.10
39849;DHT22;25518;47.878;15.914;2023-02-18T14:29:07;17.50;98.80
39849;DHT22;25518;47.878;15.914;2023-02-18T14:32:01;18.20;97.60
39849;DHT22;25518;47.878;15.914;2023-02-18T14:50:56;17.60;96.20
39849;DHT22;25518;47.878;15.914;2023-02-18T14:53:48;17.20;96.50
39849;DHT22;25518;47.878;15.914;2023-02-18T14:57:05;18.00;96.00
39849;DHT22;25518;47.878;15.914;2023-02-18T14:59:57;18.40;95.20
39849;DHT22;25518;47.878;15.914;2023-02-18T15:02:50;18.90;94.10
39849;DHT22;25518;47.878;15.914;2023-02-18T15:05:41;18.30;94.70
39849;DHT22;25518;47.878;15.914;2023-02-18T15:08:36;17.80;94.60
39849;DHT22;25518;47.878;15.914;2023-02-18T15:11:35;17.20;94.40
39849;DHT22;25518;47.878;15.914;2023-02-18T15:14:31;18.00;95.00
39849;DHT22;25518;47.878;15.914;2023-02-18T15:17:24;17.70;94.50
39849;DHT22;25518;47.878;15.914;2023-02-18T15:20:16;17.60;94.70
39849;DHT22;25518;47.878;15.914;2023-02-18T15:23:08;17.50;95.40
39849;DHT22;25518;47.878;15.914;2023-02-18T15:25:59;17.90;94.80
39849;DHT22;25518;47.878;15.914;2023-02-18T15:29:11;17.30;94.40
39849;DHT22;25518;47.878;15.914;2023-02-18T15:32:23;16.20;96.10
39849;DHT22;25518;47.878;15.914;2023-02-18T15:35:16;15.10;97.90
39849;DHT22;25518;47.878;15.914;2023-02-18T15:38:15;14.90;98.60
39849;DHT22;25518;47.878;15.914;2023-02-18T15:41:10;14.40;99.70
39849;DHT22;25518;47.878;15.914;2023-02-18T15:44:04;14.10;99.90
39849;DHT22;25518;47.878;15.914;2023-02-18T15:47:00;14.00;99.90
39849;DHT22;25518;47.878;15.914;2023-02-18T15:49:53;12.80;99.90
39849;DHT22;25518;47.878;15.914;2023-02-18T15:52:44;13.70;99.90
39849;DHT22;25518;47.878;15.914;2023-02-18T15:55:38;13.70;99.90
39849;DHT22;25518;47.878;15.914;2023-02-18T15:58:30;11.70;99.90
39849;DHT22;25518;47.878;15.914;2023-02-18T16:01:27;13.30;99.90
39849;DHT22;25518;47.878;15.914;2023-02-18T16:04:19;10.20;99.90
39849;DHT22;25518;47.878;15.914;2023-02-18T16:07:21;12.90;99.90
39849;DHT22;25518;47.878;15.914;2023-02-18T16:10:34;12.90;99.90
39849;DHT22;25518;47.878;15.914;2023-02-18T16:13:29;12.80;99.90
39849;DHT22;25518;47.878;15.914;2023-02-18T16:16:32;12.90;99.90
39849;DHT22;25518;47.878;15.914;2023-02-18T16:19:23;12.90;99.90
39849;DHT22;25518;47.878;15.914;2023-02-18T16:28:16;12.80;99.90
39849;DHT22;25518;47.878;15.914;2023-02-18T16:31:10;12.80;99.90
39849;DHT22;25518;47.878;15.914;2023-02-18T16:34:00;12.90;99.90
39849;DHT22;25518;47.878;15.914;2023-02-18T16:36:50;12.90;99.90
39849;DHT22;25518;47.878;15.914;2023-02-18T16:39:59;12.80;99.90
39849;DHT22;25518;47.878;15.914;2023-02-18T16:42:49;13.10;99.90
39849;DHT22;25518;47.878;15.914;2023-02-18T16:48:34;12.80;99.90
39849;DHT22;25518;47.878;15.914;2023-02-18T16:51:29;12.90;99.90
39849;DHT22;25518;47.878;15.914;2023-02-18T16:54:20;12.80;99.90
39849;DHT22;25518;47.878;15.914;2023-02-18T16:57:10;12.80;99.90
39849;DHT22;25518;47.878;15.914;2023-02-18T17:00:00;12.60;99.90
39849;DHT22;25518;47.878;15.914;2023-02-18T17:02:53;12.40;99.90
39849;DHT22;25518;47.878;15.914;2023-02-18T17:05:43;12.70;99.90
39849;DHT22;25518;47.878;15.914;2023-02-18T17:08:33;12.80;99.90
39849;DHT22;25518;47.878;15.914;2023-02-18T17:11:28;12.90;99.90
39849;DHT22;25518;47.878;15.914;2023-02-18T17:14:19;12.80;99.90
39849;DHT22;25518;47.878;15.914;2023-02-18T17:17:11;12.80;99.90
39849;DHT22;25518;47.878;15.914;2023-02-18T17:20:02;12.70;99.90
39849;DHT22;25518;47.878;15.914;2023-02-18T17:22:51;12.80;99.90
39849;DHT22;25518;47.878;15.914;2023-02-18T17:25:42;12.80;99.90
39849;DHT22;25518;47.878;15.914;2023-02-18T17:28:32;12.60;99.90
39849;DHT22;25518;47.878;15.914;2023-02-18T17:31:25;8.40;99.90
39849;DHT22;25518;47.878;15.914;2023-02-18T17:34:21;12.50;99.90
39849;DHT22;25518;47.878;15.914;2023-02-18T17:37:13;12.60;99.90
39849;DHT22;25518;47.878;15.914;2023-02-18T17:40:03;12.50;99.90
39849;DHT22;25518;47.878;15.914;2023-02-18T17:42:54;12.60;99.90
39849;DHT22;25518;47.878;15.914;2023-02-18T17:45:48;12.70;99.90
39849;DHT22;25518;47.878;15.914;2023-02-18T17:48:40;12.70;99.90
39849;DHT22;25518;47.878;15.914;2023-02-18T17:51:30;12.60;99.90
39849;DHT22;25518;47.878;15.914;2023-02-18T17:54:20;12.60;99.90
39849;DHT22;25518;47.878;15.914;2023-02-18T17:57:12;12.70;99.90
39849;DHT22;25518;47.878;15.914;2023-02-18T18:00:02;12.70;99.90
39849;DHT22;25518;47.878;15.914;2023-02-18T18:02:52;12.60;99.90
39849;DHT22;25518;47.878;15.914;2023-02-18T18:05:44;12.60;99.90
39849;DHT22;25518;47.878;15.914;2023-02-18T18:08:34;12.60;99.90
39849;DHT22;25518;47.878;15.914;2023-02-18T18:11:24;12.50;99.90
39849;DHT22;25518;47.878;15.914;2023-02-18T18:14:14;12.50;99.90
39849;DHT22;25518;47.878;15.914;2023-02-18T18:17:04;12.50;99.90
39849;DHT22;25518;47.878;15.914;2023-02-18T18:19:57;12.50;99.90
39849;DHT22;25518;47.878;15.914;2023-02-18T18:22:47;12.50;99.90
39849;DHT22;25518;47.878;15.914;2023-02-18T18:25:38;12.50;99.90
39849;DHT22;25518;47.878;15.914;2023-02-18T18:28:29;12.50;99.90
39849;DHT22;25518;47.878;15.914;2023-02-18T18:31:19;12.40;99.90
39849;DHT22;25518;47.878;15.914;2023-02-18T18:34:14;12.40;99.90
39849;DHT22;25518;47.878;15.914;2023-02-18T18:37:04;12.40;99.90
39849;DHT22;25518;47.878;15.914;2023-02-18T18:39:54;12.40;99.90
39849;DHT22;25518;47.878;15.914;2023-02-18T18:42:44;12.30;99.90
39849;DHT22;25518;47.878;15.914;2023-02-18T18:45:35;12.30;99.90
39849;DHT22;25518;47.878;15.914;2023-02-18T18:48:25;12.20;99.90
39849;DHT22;25518;47.878;15.914;2023-02-18T18:51:18;12.20;99.90
39849;DHT22;25518;47.878;15.914;2023-02-18T18:54:11;12.20;99.90
39849;DHT22;25518;47.878;15.914;2023-02-18T18:57:00;12.30;99.90
39849;DHT22;25518;47.878;15.914;2023-02-18T18:59:50;12.20;99.90
39849;DHT22;25518;47.878;15.914;2023-02-18T19:02:39;12.10;99.90
39849;DHT22;25518;47.878;15.914;2023-02-18T19:05:31;12.10;99.90
39849;DHT22;25518;47.878;15.914;2023-02-18T19:08:22;12.00;99.90
39849;DHT22;25518;47.878;15.914;2023-02-18T19:11:11;12.00;99.90
39849;DHT22;25518;47.878;15.914;2023-02-18T19:14:01;12.10;99.90
39849;DHT22;25518;47.878;15.914;2023-02-18T19:16:51;12.00;99.90
39849;DHT22;25518;47.878;15.914;2023-02-18T19:19:41;12.10;99.90
39849;DHT22;25518;47.878;15.914;2023-02-18T19:22:30;11.90;99.90
39849;DHT22;25518;47.878;15.914;2023-02-18T19:25:21;11.90;99.90
39849;DHT22;25518;47.878;15.914;2023-02-18T19:28:11;12.00;99.90
39849;DHT22;25518;47.878;15.914;2023-02-18T19:31:08;12.00;99.90
39849;DHT22;25518;47.878;15.914;2023-02-18T19:33:58;12.10;99.90
39849;DHT22;25518;47.878;15.914;2023-02-18T19:36:47;12.10;99.90
39849;DHT22;25518;47.878;15.914;2023-02-18T19:39:37;12.10;99.90
39849;DHT22;25518;47.878;15.914;2023-02-18T19:42:26;12.10;99.90
39849;DHT22;25518;47.878;15.914;2023-02-18T19:45:17;12.10;99.90
39849;DHT22;25518;47.878;15.914;2023-02-18T19:48:06;12.00;99.90
39849;DHT22;25518;47.878;15.914;2023-02-18T19:50:56;11.90;99.90
39849;DHT22;25518;47.878;15.914;2023-02-18T19:53:45;11.90;99.90
39849;DHT22;25518;47.878;15.914;2023-02-18T19:56:35;11.80;99.90
39849;DHT22;25518;47.878;15.914;2023-02-18T19:59:25;11.90;99.90
39849;DHT22;25518;47.878;15.914;2023-02-18T20:02:22;12.00;99.90
39849;DHT22;25518;47.878;15.914;2023-02-18T20:05:14;11.90;99.90
39849;DHT22;25518;47.878;15.914;2023-02-18T20:08:04;11.90;99.90
39849;DHT22;25518;47.878;15.914;2023-02-18T20:10:56;11.80;99.90
39849;DHT22;25518;47.878;15.914;2023-02-18T20:13:46;12.00;99.90